createdAt,value
2018-04-30T00:02:14.257Z,10.70
2018-04-30T00:04:40.366Z,10.80
2018-04-30T00:07:06.506Z,10.70
2018-04-30T00:09:32.634Z,10.70
2018-04-30T00:11:58.717Z,10.50
2018-04-30T00:14:24.887Z,10.60
2018-04-30T00:16:50.982Z,10.50
2018-04-30T00:19:17.080Z,10.40
2018-04-30T00:21:43.173Z,10.20
2018-04-30T00:24:10.072Z,10.20
2018-04-30T00:26:36.153Z,10.20
2018-04-30T00:29:02.306Z,10.20
2018-04-30T00:31:28.395Z,10.30
2018-04-30T00:33:54.501Z,10.10
2018-04-30T00:36:20.750Z,9.80
2018-04-30T00:38:46.887Z,9.40
2018-04-30T00:41:13.103Z,9.30
2018-04-30T00:43:39.207Z,9.30
2018-04-30T00:46:06.072Z,9.40
2018-04-30T00:48:33.012Z,9.40
2018-04-30T00:50:59.870Z,9.50
2018-04-30T00:53:25.972Z,9.40
2018-04-30T00:55:52.949Z,9.70
2018-04-30T00:58:19.035Z,9.70
2018-04-30T01:00:45.874Z,9.90
2018-04-30T01:03:12.047Z,9.90
2018-04-30T01:05:38.121Z,10.00
2018-04-30T01:08:04.232Z,10.00
2018-04-30T01:10:30.392Z,10.10
2018-04-30T01:12:56.484Z,10.10
2018-04-30T01:15:22.663Z,10.10
2018-04-30T01:17:48.749Z,10.10
2018-04-30T01:20:14.874Z,10.10
2018-04-30T01:22:41.037Z,10.20
2018-04-30T01:25:07.131Z,10.10
2018-04-30T01:27:33.987Z,10.20
2018-04-30T01:30:00.305Z,10.10
2018-04-30T01:32:27.153Z,10.10
2018-04-30T01:34:54.016Z,9.90
2018-04-30T01:37:20.089Z,9.90
2018-04-30T01:39:46.163Z,10.00
2018-04-30T01:42:12.293Z,10.10
2018-04-30T01:44:38.419Z,10.00
2018-04-30T01:47:04.542Z,10.20
2018-04-30T01:49:30.682Z,10.20
2018-04-30T01:51:56.791Z,10.20
2018-04-30T01:54:23.049Z,10.20
2018-04-30T01:56:49.325Z,10.20
2018-04-30T01:59:16.191Z,10.20
2018-04-30T02:01:42.331Z,10.20
2018-04-30T02:04:08.569Z,10.10
2018-04-30T02:06:34.751Z,10.20
2018-04-30T02:09:00.860Z,10.20
2018-04-30T02:11:27.745Z,10.10
2018-04-30T02:13:53.851Z,10.10
2018-04-30T02:16:20.052Z,10.10
2018-04-30T02:18:46.161Z,10.10
2018-04-30T02:21:12.276Z,10.10
2018-04-30T02:23:38.368Z,10.20
2018-04-30T02:26:04.491Z,10.10
2018-04-30T02:28:30.604Z,10.00
2018-04-30T02:30:56.745Z,10.10
2018-04-30T02:33:22.828Z,10.10
2018-04-30T02:35:48.964Z,10.10
2018-04-30T02:38:15.798Z,10.20
2018-04-30T02:40:42.637Z,10.10
2018-04-30T02:43:09.580Z,10.10
2018-04-30T02:45:35.657Z,10.10
2018-04-30T02:48:01.757Z,10.20
2018-04-30T02:50:27.833Z,10.20
2018-04-30T02:52:53.938Z,10.30
2018-04-30T02:55:20.102Z,10.30
2018-04-30T02:57:46.186Z,10.30
2018-04-30T03:00:12.334Z,10.40
2018-04-30T03:02:38.457Z,10.40
2018-04-30T03:05:04.635Z,10.40
2018-04-30T03:07:30.727Z,10.40
2018-04-30T03:09:57.101Z,10.30
2018-04-30T03:12:23.224Z,10.30
2018-04-30T03:14:49.521Z,10.20
2018-04-30T03:17:15.641Z,10.30
2018-04-30T03:19:41.769Z,10.30
2018-04-30T03:22:08.606Z,10.30
2018-04-30T03:24:34.695Z,10.30
2018-04-30T03:27:00.873Z,10.30
2018-04-30T03:29:26.983Z,10.30
2018-04-30T03:31:53.109Z,10.30
2018-04-30T03:34:19.208Z,10.40
2018-04-30T03:36:45.362Z,10.30
2018-04-30T03:39:11.492Z,10.40
2018-04-30T03:41:37.671Z,10.40
2018-04-30T03:44:04.021Z,10.40
2018-04-30T03:46:30.269Z,10.40
2018-04-30T03:48:56.376Z,10.50
2018-04-30T03:51:22.569Z,10.50
2018-04-30T03:53:48.676Z,10.40
2018-04-30T03:56:14.770Z,10.40
2018-04-30T03:58:41.666Z,10.40
2018-04-30T04:01:20.116Z,10.40
2018-04-30T04:03:58.707Z,10.40
2018-04-30T04:06:37.203Z,10.40
2018-04-30T04:09:04.127Z,10.30
2018-04-30T04:11:30.266Z,10.30
2018-04-30T04:13:56.509Z,10.20
2018-04-30T04:16:22.614Z,10.30
2018-04-30T04:18:48.724Z,10.20
2018-04-30T04:21:15.641Z,10.20
2018-04-30T04:23:41.936Z,10.20
2018-04-30T04:26:08.081Z,10.20
2018-04-30T04:28:34.179Z,10.20
2018-04-30T04:31:00.270Z,10.20
2018-04-30T04:33:27.416Z,10.20
2018-04-30T04:35:54.305Z,10.00
2018-04-30T04:38:20.425Z,10.00
2018-04-30T04:40:46.608Z,10.10
2018-04-30T04:43:12.729Z,10.00
2018-04-30T04:45:38.855Z,10.00
2018-04-30T04:48:05.707Z,10.00
2018-04-30T04:50:31.972Z,10.00
2018-04-30T04:52:58.155Z,9.90
2018-04-30T04:55:24.937Z,10.20
2018-04-30T04:57:51.175Z,10.50
2018-04-30T05:00:17.276Z,10.40
2018-04-30T05:02:43.425Z,10.30
2018-04-30T05:05:09.609Z,10.20
2018-04-30T05:07:35.762Z,10.20
2018-04-30T05:10:02.311Z,10.30
2018-04-30T05:12:28.521Z,10.30
2018-04-30T05:14:54.731Z,10.30
2018-04-30T05:17:21.084Z,10.30
2018-04-30T05:19:47.311Z,10.40
2018-04-30T05:22:13.693Z,10.40
2018-04-30T05:24:39.782Z,10.40
2018-04-30T05:27:05.898Z,10.50
2018-04-30T05:29:32.280Z,10.50
2018-04-30T05:31:59.159Z,10.50
2018-04-30T05:34:25.448Z,10.40
2018-04-30T05:36:51.793Z,10.50
2018-04-30T05:39:17.964Z,10.60
2018-04-30T05:41:44.226Z,10.70
2018-04-30T05:44:10.385Z,10.80
2018-04-30T05:46:36.500Z,10.90
2018-04-30T05:49:02.809Z,11.00
2018-04-30T05:51:29.515Z,11.00
2018-04-30T05:53:55.780Z,11.10
2018-04-30T05:56:21.922Z,11.30
2018-04-30T05:58:48.098Z,11.30
2018-04-30T06:01:14.304Z,11.50
2018-04-30T06:03:40.463Z,11.60
2018-04-30T06:06:06.665Z,11.70
2018-04-30T06:08:33.000Z,11.60
2018-04-30T06:10:59.142Z,11.60
2018-04-30T06:13:25.878Z,11.80
2018-04-30T06:15:52.284Z,11.80
2018-04-30T06:18:18.511Z,11.60
2018-04-30T06:20:44.664Z,11.80
2018-04-30T06:23:10.748Z,12.00
2018-04-30T06:25:36.846Z,12.10
2018-04-30T06:28:03.681Z,12.60
2018-04-30T06:30:29.768Z,12.50
2018-04-30T06:32:56.012Z,12.70
2018-04-30T06:35:22.095Z,12.80
2018-04-30T06:37:48.227Z,12.80
2018-04-30T06:40:14.662Z,12.70
2018-04-30T06:42:40.786Z,12.50
2018-04-30T06:45:06.899Z,12.40
2018-04-30T06:47:33.012Z,12.40
2018-04-30T06:49:59.153Z,12.40
2018-04-30T06:52:25.279Z,12.40
2018-04-30T06:54:51.421Z,12.40
2018-04-30T06:57:17.544Z,12.30
2018-04-30T06:59:43.590Z,12.30
2018-04-30T07:02:09.677Z,12.50
2018-04-30T07:04:35.879Z,12.40
2018-04-30T07:07:02.732Z,12.20
2018-04-30T07:09:28.905Z,12.20
2018-04-30T07:11:55.686Z,12.20
2018-04-30T07:14:21.828Z,12.20
2018-04-30T07:16:48.131Z,12.10
2018-04-30T07:19:14.219Z,12.10
2018-04-30T07:21:40.308Z,12.10
2018-04-30T07:24:06.391Z,12.20
2018-04-30T07:26:32.495Z,12.20
2018-04-30T07:28:58.611Z,12.20
2018-04-30T07:31:24.690Z,12.10
2018-04-30T07:33:51.533Z,12.00
2018-04-30T07:36:18.382Z,12.30
2018-04-30T07:38:44.497Z,12.20
2018-04-30T07:41:10.661Z,12.60
2018-04-30T07:43:36.737Z,12.80
2018-04-30T07:46:02.829Z,13.00
2018-04-30T07:48:28.946Z,13.20
2018-04-30T07:50:55.084Z,13.40
2018-04-30T07:53:21.188Z,13.60
2018-04-30T07:55:47.312Z,13.70
2018-04-30T07:58:13.408Z,13.60
2018-04-30T08:00:39.554Z,13.50
2018-04-30T08:03:05.691Z,13.50
2018-04-30T08:05:31.770Z,13.60
2018-04-30T08:07:57.852Z,13.50
2018-04-30T08:10:23.954Z,13.60
2018-04-30T08:12:50.112Z,13.50
2018-04-30T08:15:16.245Z,13.40
2018-04-30T08:17:42.373Z,13.30
2018-04-30T08:20:08.460Z,13.40
2018-04-30T08:22:34.536Z,13.40
2018-04-30T08:25:00.620Z,13.50
2018-04-30T08:27:26.893Z,13.70
2018-04-30T08:29:52.973Z,13.70
2018-04-30T08:32:19.076Z,13.60
2018-04-30T08:34:45.199Z,13.60
2018-04-30T08:37:11.361Z,13.70
2018-04-30T08:39:37.480Z,13.70
2018-04-30T08:42:03.747Z,13.50
2018-04-30T08:44:30.576Z,13.80
2018-04-30T08:46:56.704Z,13.80
2018-04-30T08:49:22.788Z,14.10
2018-04-30T08:51:48.860Z,14.20
2018-04-30T08:54:15.036Z,14.30
2018-04-30T08:56:41.168Z,14.10
2018-04-30T08:59:07.273Z,14.20
2018-04-30T09:01:33.451Z,14.30
2018-04-30T09:03:59.590Z,14.40
2018-04-30T09:06:26.445Z,14.40
2018-04-30T09:08:52.641Z,14.40
2018-04-30T09:11:18.773Z,14.30
2018-04-30T09:13:44.890Z,14.30
2018-04-30T09:16:11.004Z,14.50
2018-04-30T09:18:37.209Z,14.50
2018-04-30T09:21:03.425Z,14.40
2018-04-30T09:23:29.657Z,14.40
2018-04-30T09:25:55.805Z,14.30
2018-04-30T09:28:21.912Z,14.30
2018-04-30T09:30:48.208Z,14.30
2018-04-30T09:33:14.373Z,14.30
2018-04-30T09:35:40.468Z,14.50
2018-04-30T09:38:06.582Z,14.60
2018-04-30T09:40:32.793Z,14.50
2018-04-30T09:42:59.087Z,14.60
2018-04-30T09:45:25.720Z,14.70
2018-04-30T09:47:51.843Z,14.60
2018-04-30T09:50:18.926Z,14.70
2018-04-30T09:52:45.020Z,14.90
2018-04-30T09:55:11.129Z,15.00
2018-04-30T09:57:37.324Z,15.00
2018-04-30T10:00:03.452Z,14.80
2018-04-30T10:02:30.421Z,15.00
2018-04-30T10:04:56.633Z,15.00
2018-04-30T10:07:23.002Z,14.90
2018-04-30T10:09:49.396Z,14.90
2018-04-30T10:12:15.713Z,14.60
2018-04-30T10:14:41.816Z,14.80
2018-04-30T10:17:08.325Z,14.80
2018-04-30T10:19:34.478Z,15.00
2018-04-30T10:22:01.614Z,14.80
2018-04-30T10:24:27.813Z,15.00
2018-04-30T10:26:53.940Z,15.20
2018-04-30T10:29:20.132Z,15.30
2018-04-30T10:31:46.501Z,15.20
2018-04-30T10:34:12.976Z,15.20
2018-04-30T10:36:39.112Z,15.30
2018-04-30T10:39:06.011Z,15.10
2018-04-30T10:41:32.290Z,15.10
2018-04-30T10:43:58.413Z,15.30
2018-04-30T10:46:25.293Z,15.70
2018-04-30T10:48:51.420Z,15.70
2018-04-30T10:51:17.672Z,15.70
2018-04-30T10:53:44.170Z,16.00
2018-04-30T10:56:10.359Z,15.70
2018-04-30T10:58:36.621Z,15.50
2018-04-30T11:01:02.790Z,15.50
2018-04-30T11:03:28.996Z,15.50
2018-04-30T11:05:55.684Z,15.70
2018-04-30T11:08:21.945Z,15.50
2018-04-30T11:10:48.152Z,15.20
2018-04-30T11:13:14.263Z,15.10
2018-04-30T11:15:40.545Z,15.20
2018-04-30T11:18:06.885Z,15.50
2018-04-30T11:20:33.035Z,15.80
2018-04-30T11:22:59.129Z,15.40
2018-04-30T11:25:25.225Z,15.40
2018-04-30T11:27:51.526Z,15.40
2018-04-30T11:30:17.718Z,15.40
2018-04-30T11:32:43.934Z,15.70
2018-04-30T11:35:10.646Z,15.70
2018-04-30T11:37:36.741Z,15.70
2018-04-30T11:40:02.973Z,15.50
2018-04-30T11:42:28.996Z,15.60
2018-04-30T11:44:55.148Z,15.60
2018-04-30T11:47:21.268Z,15.50
2018-04-30T11:49:47.462Z,15.50
2018-04-30T11:52:13.627Z,15.50
2018-04-30T11:54:39.770Z,15.50
2018-04-30T11:57:05.888Z,15.30
2018-04-30T11:59:31.980Z,15.40
2018-04-30T12:01:58.216Z,15.30
2018-04-30T12:04:24.449Z,15.70
2018-04-30T12:06:50.670Z,15.60
2018-04-30T12:09:16.991Z,15.60
2018-04-30T12:11:43.124Z,15.60
2018-04-30T12:14:09.259Z,15.60
2018-04-30T12:16:35.497Z,15.70
2018-04-30T12:19:01.801Z,15.80
2018-04-30T12:21:27.943Z,15.80
2018-04-30T12:23:54.060Z,15.70
2018-04-30T12:26:20.185Z,15.70
2018-04-30T12:28:47.201Z,15.80
2018-04-30T12:31:13.365Z,15.70
2018-04-30T12:33:39.491Z,15.90
2018-04-30T12:36:05.662Z,16.10
2018-04-30T12:38:31.918Z,16.00
2018-04-30T12:40:58.816Z,15.60
2018-04-30T12:43:25.043Z,15.60
2018-04-30T12:45:51.177Z,15.40
2018-04-30T12:48:18.075Z,15.40
2018-04-30T12:50:44.321Z,15.40
2018-04-30T12:53:10.538Z,15.30
2018-04-30T12:55:36.721Z,15.20
2018-04-30T12:58:02.991Z,15.10
2018-04-30T13:00:29.136Z,15.20
2018-04-30T13:02:55.236Z,15.20
2018-04-30T13:05:21.378Z,15.10
2018-04-30T13:07:47.617Z,15.10
2018-04-30T13:10:13.729Z,15.10
2018-04-30T13:12:39.904Z,15.30
2018-04-30T13:15:06.955Z,15.40
2018-04-30T13:17:33.362Z,15.40
2018-04-30T13:19:59.539Z,15.40
2018-04-30T13:22:25.668Z,15.30
2018-04-30T13:24:51.907Z,15.60
2018-04-30T13:27:18.289Z,15.50
2018-04-30T13:29:45.547Z,15.40
2018-04-30T13:32:12.404Z,15.40
2018-04-30T13:34:39.328Z,15.40
2018-04-30T13:37:05.640Z,15.40
2018-04-30T13:39:31.833Z,15.20
2018-04-30T13:41:58.109Z,15.20
2018-04-30T13:44:24.301Z,15.10
2018-04-30T13:46:50.626Z,15.00
2018-04-30T13:49:17.211Z,14.90
2018-04-30T13:51:43.386Z,14.70
2018-04-30T13:54:09.704Z,14.70
2018-04-30T13:56:36.253Z,14.80
2018-04-30T13:59:02.581Z,14.90
2018-04-30T14:01:28.695Z,15.30
2018-04-30T14:03:54.923Z,15.40
2018-04-30T14:06:21.091Z,15.40
2018-04-30T14:08:47.241Z,15.50
2018-04-30T14:11:13.537Z,15.60
2018-04-30T14:13:40.467Z,15.00
2018-04-30T14:16:07.098Z,15.00
2018-04-30T14:18:33.133Z,14.90
2018-04-30T14:20:59.348Z,14.80
2018-04-30T14:23:25.682Z,14.80
2018-04-30T14:25:52.004Z,14.80
2018-04-30T14:28:18.202Z,15.00
2018-04-30T14:30:44.356Z,15.10
2018-04-30T14:33:10.479Z,15.20
2018-04-30T14:35:37.477Z,15.30
2018-04-30T14:38:03.861Z,15.30
2018-04-30T14:40:30.046Z,15.40
2018-04-30T14:42:56.313Z,15.30
2018-04-30T14:45:22.472Z,15.50
2018-04-30T14:47:48.704Z,15.40
2018-04-30T14:50:15.064Z,15.10
2018-04-30T14:52:41.472Z,14.90
2018-04-30T14:55:07.623Z,14.90
2018-04-30T14:57:33.777Z,14.90
2018-04-30T15:00:01.766Z,14.80
2018-04-30T15:02:28.816Z,14.80
2018-04-30T15:04:55.749Z,14.80
2018-04-30T15:07:21.888Z,14.70
2018-04-30T15:09:48.001Z,14.80
2018-04-30T15:12:14.392Z,14.70
2018-04-30T15:14:40.777Z,14.70
2018-04-30T15:17:07.088Z,14.60
2018-04-30T15:19:33.370Z,14.70
2018-04-30T15:21:59.507Z,14.70
2018-04-30T15:24:26.619Z,14.40
2018-04-30T15:26:52.927Z,14.40
2018-04-30T15:29:19.061Z,14.50
2018-04-30T15:31:45.381Z,14.50
2018-04-30T15:34:11.606Z,14.50
2018-04-30T15:36:39.272Z,14.70
2018-04-30T15:39:05.413Z,14.60
2018-04-30T15:41:31.620Z,14.80
2018-04-30T15:43:58.151Z,14.90
2018-04-30T15:46:24.303Z,14.80
2018-04-30T15:48:50.416Z,14.70
2018-04-30T15:51:16.712Z,14.60
2018-04-30T15:53:42.889Z,14.60
2018-04-30T15:56:09.400Z,14.70
2018-04-30T15:58:35.728Z,14.80
2018-04-30T16:01:02.101Z,15.00
2018-04-30T16:03:28.305Z,15.10
2018-04-30T16:05:54.515Z,15.10
2018-04-30T16:08:21.128Z,14.90
2018-04-30T16:10:47.297Z,14.90
2018-04-30T16:13:13.420Z,14.80
2018-04-30T16:15:39.600Z,14.70
2018-04-30T16:18:05.754Z,14.70
2018-04-30T16:20:32.081Z,14.60
2018-04-30T16:22:58.259Z,14.40
2018-04-30T16:25:24.436Z,14.20
2018-04-30T16:27:50.686Z,14.20
2018-04-30T16:30:16.811Z,14.20
2018-04-30T16:32:43.049Z,14.30
2018-04-30T16:35:09.167Z,14.20
2018-04-30T16:37:35.326Z,14.20
2018-04-30T16:40:01.529Z,14.30
2018-04-30T16:42:27.654Z,14.40
2018-04-30T16:44:53.961Z,14.30
2018-04-30T16:47:20.142Z,14.20
2018-04-30T16:49:46.316Z,14.20
2018-04-30T16:52:12.618Z,14.30
2018-04-30T16:54:38.827Z,14.30
2018-04-30T16:57:05.093Z,14.30
2018-04-30T16:59:31.319Z,14.40
2018-04-30T17:01:57.512Z,14.50
2018-04-30T17:04:23.702Z,14.70
2018-04-30T17:06:50.514Z,14.80
2018-04-30T17:09:16.773Z,14.70
2018-04-30T17:11:42.995Z,14.80
2018-04-30T17:14:09.527Z,14.90
2018-04-30T17:16:35.909Z,15.00
2018-04-30T17:19:02.093Z,14.90
2018-04-30T17:21:28.299Z,14.80
2018-04-30T17:23:54.423Z,14.50
2018-04-30T17:26:20.547Z,14.30
2018-04-30T17:28:46.754Z,14.30
2018-04-30T17:31:13.109Z,14.20
2018-04-30T17:33:39.228Z,14.30
2018-04-30T17:36:05.465Z,14.20
2018-04-30T17:38:31.685Z,14.10
2018-04-30T17:40:58.023Z,14.10
2018-04-30T17:43:24.224Z,13.90
2018-04-30T17:45:50.452Z,14.00
2018-04-30T17:48:17.131Z,13.90
2018-04-30T17:50:44.333Z,13.70
2018-04-30T17:53:12.368Z,13.60
2018-04-30T17:55:39.784Z,13.50
2018-04-30T17:58:06.036Z,13.50
2018-04-30T18:00:33.094Z,13.50
2018-04-30T18:02:59.340Z,13.50
2018-04-30T18:05:25.749Z,13.50
2018-04-30T18:07:52.257Z,13.60
2018-04-30T18:10:18.494Z,13.60
2018-04-30T18:12:45.497Z,13.60
2018-04-30T18:15:12.032Z,13.50
2018-04-30T18:17:38.310Z,13.30
2018-04-30T18:20:04.466Z,13.30
2018-04-30T18:22:31.514Z,13.10
2018-04-30T18:24:58.615Z,13.00
2018-04-30T18:27:25.016Z,13.00
2018-04-30T18:29:51.343Z,13.00
2018-04-30T18:32:17.597Z,12.90
2018-04-30T18:34:44.543Z,12.90
2018-04-30T18:37:10.676Z,12.90
2018-04-30T18:39:37.108Z,12.90
2018-04-30T18:42:03.281Z,12.80
2018-04-30T18:44:31.193Z,12.70
2018-04-30T18:46:57.461Z,12.70
2018-04-30T18:49:23.768Z,12.70
2018-04-30T18:51:49.969Z,12.70
2018-04-30T18:54:16.230Z,12.70
2018-04-30T18:56:42.564Z,12.70
2018-04-30T18:59:08.774Z,12.50
2018-04-30T19:01:34.932Z,12.50
2018-04-30T19:04:01.059Z,12.50
2018-04-30T19:06:27.589Z,12.50
2018-04-30T19:08:53.794Z,12.50
2018-04-30T19:11:20.093Z,12.50
2018-04-30T19:13:46.200Z,12.50
2018-04-30T19:16:12.344Z,12.60
2018-04-30T19:18:38.862Z,12.70
2018-04-30T19:21:05.201Z,12.60
2018-04-30T19:23:31.336Z,12.50
2018-04-30T19:25:57.586Z,12.50
2018-04-30T19:28:24.225Z,12.50
2018-04-30T19:30:50.366Z,12.40
2018-04-30T19:33:16.492Z,12.40
2018-04-30T19:35:42.757Z,12.40
2018-04-30T19:38:08.914Z,12.40
2018-04-30T19:40:35.036Z,12.40
2018-04-30T19:43:01.539Z,12.40
2018-04-30T19:45:27.789Z,12.40
2018-04-30T19:47:54.274Z,12.40
2018-04-30T19:50:20.496Z,12.30
2018-04-30T19:52:46.823Z,12.40
2018-04-30T19:55:13.831Z,12.40
2018-04-30T19:57:39.961Z,12.40
2018-04-30T20:00:06.332Z,12.40
2018-04-30T20:02:32.531Z,12.40
2018-04-30T20:04:58.688Z,12.40
2018-04-30T20:07:24.895Z,12.30
2018-04-30T20:09:51.128Z,12.30
2018-04-30T20:12:17.261Z,12.40
2018-04-30T20:14:43.785Z,12.40
2018-04-30T20:17:09.910Z,12.40
2018-04-30T20:19:36.061Z,12.40
2018-04-30T20:22:02.233Z,12.40
2018-04-30T20:24:28.396Z,12.50
2018-04-30T20:26:54.717Z,12.50
2018-04-30T20:29:21.132Z,12.50
2018-04-30T20:31:47.308Z,12.50
2018-04-30T20:34:13.519Z,12.30
2018-04-30T20:36:39.691Z,12.30
2018-04-30T20:39:05.963Z,12.20
2018-04-30T20:41:32.169Z,12.30
2018-04-30T20:43:58.296Z,12.30
2018-04-30T20:46:24.909Z,12.30
2018-04-30T20:48:51.076Z,12.40
2018-04-30T20:51:18.102Z,12.50
2018-04-30T20:53:44.329Z,12.50
2018-04-30T20:56:10.479Z,12.50
2018-04-30T20:58:36.625Z,12.50
2018-04-30T21:01:02.951Z,12.50
2018-04-30T21:03:29.168Z,12.60
2018-04-30T21:05:55.283Z,12.60
2018-04-30T21:08:21.511Z,12.50
2018-04-30T21:10:47.629Z,12.50
2018-04-30T21:13:13.767Z,12.50
2018-04-30T21:15:40.044Z,12.50
2018-04-30T21:18:06.186Z,12.50
2018-04-30T21:20:33.064Z,12.50
2018-04-30T21:22:59.314Z,12.40
2018-04-30T21:25:25.515Z,12.40
2018-04-30T21:27:51.568Z,12.40
2018-04-30T21:30:18.414Z,12.30
2018-04-30T21:32:45.408Z,12.20
2018-04-30T21:35:11.868Z,12.20
2018-04-30T21:37:37.968Z,12.20
2018-04-30T21:40:04.998Z,12.30
2018-04-30T21:42:31.310Z,12.30
2018-04-30T21:44:57.519Z,12.30
2018-04-30T21:47:24.395Z,12.20
2018-04-30T21:49:50.535Z,12.20
2018-04-30T21:52:16.661Z,12.10
2018-04-30T21:54:42.841Z,12.00
2018-04-30T21:57:09.768Z,12.00
2018-04-30T21:59:35.958Z,11.90
2018-04-30T22:02:02.069Z,12.00
2018-04-30T22:04:28.201Z,12.00
2018-04-30T22:06:54.431Z,11.90
2018-04-30T22:09:20.524Z,11.80
2018-04-30T22:11:46.624Z,11.70
2018-04-30T22:14:12.743Z,11.80
2018-04-30T22:16:38.839Z,11.80
2018-04-30T22:19:04.924Z,11.80
2018-04-30T22:21:31.039Z,11.60
2018-04-30T22:23:57.925Z,11.40
2018-04-30T22:26:24.050Z,11.40
2018-04-30T22:28:50.154Z,11.40
2018-04-30T22:31:16.385Z,11.40
2018-04-30T22:33:42.541Z,11.40
2018-04-30T22:36:08.613Z,11.30
2018-04-30T22:38:35.484Z,11.30
2018-04-30T22:41:01.621Z,11.30
2018-04-30T22:43:27.842Z,11.20
2018-04-30T22:45:54.031Z,11.30
2018-04-30T22:48:20.104Z,11.40
2018-04-30T22:50:46.249Z,11.40
2018-04-30T22:53:12.306Z,11.30
2018-04-30T22:55:38.779Z,11.30
2018-04-30T22:58:04.960Z,11.40
2018-04-30T23:00:31.897Z,11.30
2018-04-30T23:02:58.060Z,11.20
2018-04-30T23:05:24.207Z,11.10
2018-04-30T23:07:50.272Z,11.00
2018-04-30T23:10:17.116Z,11.10
2018-04-30T23:12:43.238Z,11.10
2018-04-30T23:15:09.380Z,11.00
2018-04-30T23:17:35.545Z,10.90
2018-04-30T23:20:01.680Z,10.90
2018-04-30T23:22:35.836Z,11.00
2018-04-30T23:25:02.677Z,10.90
2018-04-30T23:27:28.848Z,10.80
2018-04-30T23:29:55.688Z,10.80
2018-04-30T23:32:21.888Z,10.80
2018-04-30T23:34:48.191Z,10.80
2018-04-30T23:37:14.360Z,10.60
2018-04-30T23:39:40.475Z,10.60
2018-04-30T23:42:06.641Z,10.60
2018-04-30T23:44:32.754Z,10.50
2018-04-30T23:46:58.887Z,10.40
2018-04-30T23:49:25.031Z,10.50
2018-04-30T23:51:51.791Z,10.40
2018-04-30T23:54:18.636Z,10.40
2018-04-30T23:56:45.478Z,10.40
2018-04-30T23:59:12.406Z,10.50
